sensor_id;sensor_type;location;lat;lon;timestamp;pressure;altitude;pressure_sealevel;temperature;humidity
69836;BME280;57132;51.972;4.450;2023-01-29T00:01:43;102977.59;;;2.87;100.00
69836;BME280;57132;51.972;4.450;2023-01-29T00:04:09;102967.91;;;2.87;100.00
69836;BME280;57132;51.972;4.450;2023-01-29T00:06:35;102957.34;;;2.89;100.00
69836;BME280;57132;51.972;4.450;2023-01-29T00:09:00;102950.31;;;2.91;100.00
69836;BME280;57132;51.972;4.450;2023-01-29T00:11:26;102957.34;;;2.92;100.00
69836;BME280;57132;51.972;4.450;2023-01-29T00:13:51;102960.00;;;2.93;100.00
69836;BME280;57132;51.972;4.450;2023-01-29T00:16:17;102957.34;;;2.95;100.00
69836;BME280;57132;51.972;4.450;2023-01-29T00:18:43;102951.13;;;3.01;100.00
69836;BME280;57132;51.972;4.450;2023-01-29T00:21:17;102945.88;;;3.02;100.00
69836;BME280;57132;51.972;4.450;2023-01-29T00:23:43;102945.88;;;3.05;100.00
69836;BME280;57132;51.972;4.450;2023-01-29T00:26:10;102940.59;;;3.05;100.00
69836;BME280;57132;51.972;4.450;2023-01-29T00:28:35;102936.22;;;3.01;100.00
69836;BME280;57132;51.972;4.450;2023-01-29T00:31:17;102941.47;;;3.00;100.00
69836;BME280;57132;51.972;4.450;2023-01-29T00:33:42;102949.41;;;2.98;100.00
69836;BME280;57132;51.972;4.450;2023-01-29T00:36:09;102945.91;;;2.96;100.00
69836;BME280;57132;51.972;4.450;2023-01-29T00:38:36;102945.03;;;2.95;100.00
69836;BME280;57132;51.972;4.450;2023-01-29T00:41:15;102946.78;;;2.95;100.00
69836;BME280;57132;51.972;4.450;2023-01-29T00:44:00;102937.13;;;2.92;100.00
69836;BME280;57132;51.972;4.450;2023-01-29T00:46:44;102925.69;;;2.93;100.00
69836;BME280;57132;51.972;4.450;2023-01-29T00:49:11;102926.59;;;2.91;100.00
69836;BME280;57132;51.972;4.450;2023-01-29T00:51:37;102917.78;;;2.89;100.00
69836;BME280;57132;51.972;4.450;2023-01-29T00:54:03;102917.78;;;2.89;100.00
69836;BME280;57132;51.972;4.450;2023-01-29T00:56:31;102924.81;;;2.91;100.00
69836;BME280;57132;51.972;4.450;2023-01-29T00:58:57;102912.50;;;2.92;100.00
69836;BME280;57132;51.972;4.450;2023-01-29T01:01:23;102923.06;;;2.92;100.00
69836;BME280;57132;51.972;4.450;2023-01-29T01:04:09;102912.50;;;2.92;100.00
69836;BME280;57132;51.972;4.450;2023-01-29T01:06:38;102911.63;;;2.91;100.00
69836;BME280;57132;51.972;4.450;2023-01-29T01:09:05;102911.59;;;2.93;100.00
69836;BME280;57132;51.972;4.450;2023-01-29T01:11:49;102913.41;;;2.91;100.00
69836;BME280;57132;51.972;4.450;2023-01-29T01:14:16;102911.63;;;2.91;100.00
69836;BME280;57132;51.972;4.450;2023-01-29T01:16:42;102911.63;;;2.91;100.00
69836;BME280;57132;51.972;4.450;2023-01-29T01:19:10;102913.41;;;2.88;100.00
69836;BME280;57132;51.972;4.450;2023-01-29T01:21:36;102918.69;;;2.88;100.00
69836;BME280;57132;51.972;4.450;2023-01-29T01:24:03;102912.53;;;2.87;100.00
69836;BME280;57132;51.972;4.450;2023-01-29T01:26:31;102921.31;;;2.91;100.00
69836;BME280;57132;51.972;4.450;2023-01-29T01:28:57;102915.13;;;2.92;100.00
69836;BME280;57132;51.972;4.450;2023-01-29T01:31:22;102919.53;;;2.93;100.00
69836;BME280;57132;51.972;4.450;2023-01-29T01:33:48;102926.56;;;2.97;100.00
69836;BME280;57132;51.972;4.450;2023-01-29T01:36:15;102922.13;;;2.99;100.00
69836;BME280;57132;51.972;4.450;2023-01-29T01:38:41;102927.41;;;3.01;100.00
69836;BME280;57132;51.972;4.450;2023-01-29T01:41:16;102927.41;;;3.02;100.00
69836;BME280;57132;51.972;4.450;2023-01-29T01:43:56;102926.53;;;3.02;100.00
69836;BME280;57132;51.972;4.450;2023-01-29T01:46:23;102929.16;;;3.00;100.00
69836;BME280;57132;51.972;4.450;2023-01-29T01:49:13;102924.75;;;3.01;100.00
69836;BME280;57132;51.972;4.450;2023-01-29T01:51:47;102931.81;;;2.99;100.00
69836;BME280;57132;51.972;4.450;2023-01-29T01:54:23;102935.31;;;3.01;100.00
69836;BME280;57132;51.972;4.450;2023-01-29T01:56:54;102929.19;;;2.99;100.00
69836;BME280;57132;51.972;4.450;2023-01-29T01:59:31;102932.72;;;2.94;100.00
69836;BME280;57132;51.972;4.450;2023-01-29T02:01:58;102928.34;;;2.90;100.00
69836;BME280;57132;51.972;4.450;2023-01-29T02:04:25;102923.97;;;2.89;100.00
69836;BME280;57132;51.972;4.450;2023-01-29T02:07:12;102918.69;;;2.89;100.00
69836;BME280;57132;51.972;4.450;2023-01-29T02:10:13;102923.06;;;2.89;100.00
69836;BME280;57132;51.972;4.450;2023-01-29T02:12:40;102916.91;;;2.88;100.00
69836;BME280;57132;51.972;4.450;2023-01-29T02:15:06;102909.00;;;2.90;100.00
69836;BME280;57132;51.972;4.450;2023-01-29T02:17:32;102905.50;;;2.88;100.00
69836;BME280;57132;51.972;4.450;2023-01-29T02:26:38;102908.16;;;2.85;100.00
69836;BME280;57132;51.972;4.450;2023-01-29T02:29:04;102914.28;;;2.90;100.00
69836;BME280;57132;51.972;4.450;2023-01-29T02:34:46;102917.78;;;2.89;100.00
69836;BME280;57132;51.972;4.450;2023-01-29T02:37:51;102911.63;;;2.88;100.00
69836;BME280;57132;51.972;4.450;2023-01-29T02:42:53;102916.06;;;2.89;100.00
69836;BME280;57132;51.972;4.450;2023-01-29T02:45:30;102918.69;;;2.89;100.00
69836;BME280;57132;51.972;4.450;2023-01-29T02:47:59;102917.81;;;2.87;100.00
69836;BME280;57132;51.972;4.450;2023-01-29T02:53:40;102909.94;;;2.81;100.00
69836;BME280;57132;51.972;4.450;2023-01-29T02:56:20;102909.03;;;2.81;100.00
69836;BME280;57132;51.972;4.450;2023-01-29T02:58:56;102910.81;;;2.80;100.00
69836;BME280;57132;51.972;4.450;2023-01-29T03:01:58;102911.69;;;2.79;100.00
69836;BME280;57132;51.972;4.450;2023-01-29T03:04:21;102903.81;;;2.78;100.00
69836;BME280;57132;51.972;4.450;2023-01-29T03:07:14;102902.03;;;2.77;100.00
69836;BME280;57132;51.972;4.450;2023-01-29T03:09:48;102906.44;;;2.76;100.00
69836;BME280;57132;51.972;4.450;2023-01-29T03:12:21;102902.91;;;2.77;100.00
69836;BME280;57132;51.972;4.450;2023-01-29T03:14:59;102904.69;;;2.78;100.00
69836;BME280;57132;51.972;4.450;2023-01-29T03:17:50;102903.78;;;2.81;100.00
69836;BME280;57132;51.972;4.450;2023-01-29T03:20:21;102895.88;;;2.82;100.00
69836;BME280;57132;51.972;4.450;2023-01-29T03:22:56;102902.88;;;2.83;100.00
69836;BME280;57132;51.972;4.450;2023-01-29T03:25:25;102902.03;;;2.81;100.00
69836;BME280;57132;51.972;4.450;2023-01-29T03:28:13;102894.97;;;2.83;100.00
69836;BME280;57132;51.972;4.450;2023-01-29T03:31:04;102895.84;;;2.84;100.00
69836;BME280;57132;51.972;4.450;2023-01-29T03:33:59;102887.94;;;2.87;100.00
69836;BME280;57132;51.972;4.450;2023-01-29T03:36:38;102872.09;;;2.87;100.00
69836;BME280;57132;51.972;4.450;2023-01-29T03:39:09;102880.03;;;2.85;100.00
69836;BME280;57132;51.972;4.450;2023-01-29T03:52:59;102886.09;;;2.98;100.00
69836;BME280;57132;51.972;4.450;2023-01-29T03:55:48;102877.31;;;2.96;100.00
69836;BME280;57132;51.972;4.450;2023-01-29T03:58:32;102865.00;;;2.95;100.00
69836;BME280;57132;51.972;4.450;2023-01-29T04:01:24;102866.75;;;2.96;100.00
69836;BME280;57132;51.972;4.450;2023-01-29T04:06:25;102853.59;;;2.94;100.00
69836;BME280;57132;51.972;4.450;2023-01-29T04:11:19;102850.94;;;2.98;100.00
69836;BME280;57132;51.972;4.450;2023-01-29T04:13:46;102855.31;;;2.99;100.00
69836;BME280;57132;51.972;4.450;2023-01-29T04:16:17;102858.00;;;2.94;100.00
69836;BME280;57132;51.972;4.450;2023-01-29T04:18:46;102857.13;;;2.93;100.00
69836;BME280;57132;51.972;4.450;2023-01-29T04:21:14;102855.34;;;2.95;100.00
69836;BME280;57132;51.972;4.450;2023-01-29T04:23:40;102845.66;;;2.96;100.00
69836;BME280;57132;51.972;4.450;2023-01-29T04:26:20;102852.72;;;2.97;100.00
69836;BME280;57132;51.972;4.450;2023-01-29T04:32:17;102844.81;;;2.94;100.00
69836;BME280;57132;51.972;4.450;2023-01-29T04:34:59;102837.75;;;2.93;100.00
69836;BME280;57132;51.972;4.450;2023-01-29T04:37:35;102840.41;;;2.91;100.00
69836;BME280;57132;51.972;4.450;2023-01-29T04:40:22;102836.03;;;2.89;100.00
69836;BME280;57132;51.972;4.450;2023-01-29T04:48:41;102818.41;;;2.92;100.00
69836;BME280;57132;51.972;4.450;2023-01-29T04:56:32;102815.75;;;3.02;100.00
69836;BME280;57132;51.972;4.450;2023-01-29T04:59:15;102806.91;;;3.04;100.00
69836;BME280;57132;51.972;4.450;2023-01-29T05:01:43;102801.59;;;3.07;100.00
69836;BME280;57132;51.972;4.450;2023-01-29T05:04:12;102815.72;;;3.03;100.00
69836;BME280;57132;51.972;4.450;2023-01-29T05:06:39;102814.81;;;3.04;100.00
69836;BME280;57132;51.972;4.450;2023-01-29T05:09:05;102822.75;;;3.06;100.00
69836;BME280;57132;51.972;4.450;2023-01-29T05:11:34;102812.16;;;3.07;100.00
69836;BME280;57132;51.972;4.450;2023-01-29T05:14:01;102802.50;;;3.06;100.00
69836;BME280;57132;51.972;4.450;2023-01-29T05:16:34;102800.75;;;3.05;100.00
69836;BME280;57132;51.972;4.450;2023-01-29T05:19:13;102793.72;;;3.04;100.00
69836;BME280;57132;51.972;4.450;2023-01-29T05:21:42;102796.41;;;3.01;100.00
69836;BME280;57132;51.972;4.450;2023-01-29T05:24:18;102797.28;;;3.02;100.00
69836;BME280;57132;51.972;4.450;2023-01-29T05:26:46;102794.59;;;3.03;100.00
69836;BME280;57132;51.972;4.450;2023-01-29T05:29:31;102791.09;;;3.03;100.00
69836;BME280;57132;51.972;4.450;2023-01-29T05:31:56;102793.72;;;3.03;100.00
69836;BME280;57132;51.972;4.450;2023-01-29T05:34:22;102784.06;;;3.03;100.00
69836;BME280;57132;51.972;4.450;2023-01-29T05:36:48;102774.38;;;3.04;100.00
69836;BME280;57132;51.972;4.450;2023-01-29T05:39:13;102775.25;;;3.04;100.00
69836;BME280;57132;51.972;4.450;2023-01-29T05:41:38;102768.22;;;3.03;100.00
69836;BME280;57132;51.972;4.450;2023-01-29T05:44:04;102777.03;;;3.05;100.00
69836;BME280;57132;51.972;4.450;2023-01-29T05:46:29;102784.00;;;3.08;100.00
69836;BME280;57132;51.972;4.450;2023-01-29T05:48:55;102777.88;;;3.06;100.00
69836;BME280;57132;51.972;4.450;2023-01-29T05:51:20;102777.88;;;3.06;100.00
69836;BME280;57132;51.972;4.450;2023-01-29T05:53:45;102779.59;;;3.08;100.00
69836;BME280;57132;51.972;4.450;2023-01-29T05:56:11;102776.97;;;3.08;100.00
69836;BME280;57132;51.972;4.450;2023-01-29T05:58:36;102783.13;;;3.10;100.00
69836;BME280;57132;51.972;4.450;2023-01-29T06:01:19;102784.84;;;3.14;100.00
69836;BME280;57132;51.972;4.450;2023-01-29T06:03:45;102779.59;;;3.11;100.00
69836;BME280;57132;51.972;4.450;2023-01-29T06:06:11;102785.75;;;3.10;100.00
69836;BME280;57132;51.972;4.450;2023-01-29T06:08:37;102783.97;;;3.12;100.00
69836;BME280;57132;51.972;4.450;2023-01-29T06:11:05;102776.06;;;3.12;100.00
69836;BME280;57132;51.972;4.450;2023-01-29T06:13:31;102785.75;;;3.10;100.00
69836;BME280;57132;51.972;4.450;2023-01-29T06:15:56;102781.38;;;3.09;100.00
69836;BME280;57132;51.972;4.450;2023-01-29T06:18:21;102778.69;;;3.12;100.00
69836;BME280;57132;51.972;4.450;2023-01-29T06:20:47;102772.53;;;3.15;100.00
69836;BME280;57132;51.972;4.450;2023-01-29T06:23:12;102768.09;;;3.18;100.00
69836;BME280;57132;51.972;4.450;2023-01-29T06:25:37;102768.09;;;3.18;100.00
69836;BME280;57132;51.972;4.450;2023-01-29T06:28:03;102765.44;;;3.22;100.00
69836;BME280;57132;51.972;4.450;2023-01-29T06:30:28;102760.13;;;3.23;100.00
69836;BME280;57132;51.972;4.450;2023-01-29T06:32:55;102753.97;;;3.24;100.00
69836;BME280;57132;51.972;4.450;2023-01-29T06:35:23;102747.84;;;3.22;100.00
69836;BME280;57132;51.972;4.450;2023-01-29T06:37:48;102751.38;;;3.21;100.00
69836;BME280;57132;51.972;4.450;2023-01-29T06:40:13;102756.66;;;3.21;100.00
69836;BME280;57132;51.972;4.450;2023-01-29T06:42:39;102744.31;;;3.20;100.00
69836;BME280;57132;51.972;4.450;2023-01-29T06:45:05;102748.72;;;3.19;100.00
69836;BME280;57132;51.972;4.450;2023-01-29T06:47:31;102752.28;;;3.17;100.00
69836;BME280;57132;51.972;4.450;2023-01-29T06:49:56;102744.38;;;3.17;100.00
69836;BME280;57132;51.972;4.450;2023-01-29T06:52:22;102745.22;;;3.19;100.00
69836;BME280;57132;51.972;4.450;2023-01-29T06:54:49;102744.31;;;3.20;100.00
69836;BME280;57132;51.972;4.450;2023-01-29T06:57:14;102740.78;;;3.23;100.00
69836;BME280;57132;51.972;4.450;2023-01-29T06:59:40;102735.47;;;3.24;100.00
69836;BME280;57132;51.972;4.450;2023-01-29T07:02:05;102735.47;;;3.27;100.00
69836;BME280;57132;51.972;4.450;2023-01-29T07:04:30;102736.34;;;3.29;100.00
69836;BME280;57132;51.972;4.450;2023-01-29T07:06:58;102732.81;;;3.29;100.00
69836;BME280;57132;51.972;4.450;2023-01-29T07:09:23;102731.91;;;3.28;100.00
69836;BME280;57132;51.972;4.450;2023-01-29T07:11:49;102737.22;;;3.27;100.00
69836;BME280;57132;51.972;4.450;2023-01-29T07:14:14;102736.31;;;3.28;100.00
69836;BME280;57132;51.972;4.450;2023-01-29T07:16:40;102746.03;;;3.29;100.00
69836;BME280;57132;51.972;4.450;2023-01-29T07:19:05;102742.47;;;3.31;100.00
69836;BME280;57132;51.972;4.450;2023-01-29T07:21:33;102750.41;;;3.30;100.00
69836;BME280;57132;51.972;4.450;2023-01-29T07:23:58;102748.63;;;3.30;100.00
69836;BME280;57132;51.972;4.450;2023-01-29T07:26:23;102753.00;;;3.31;100.00
69836;BME280;57132;51.972;4.450;2023-01-29T07:28:50;102752.16;;;3.28;100.00
69836;BME280;57132;51.972;4.450;2023-01-29T07:31:15;102738.97;;;3.28;100.00
69836;BME280;57132;51.972;4.450;2023-01-29T07:33:44;102737.22;;;3.27;100.00
69836;BME280;57132;51.972;4.450;2023-01-29T07:36:11;102749.53;;;3.28;100.00
69836;BME280;57132;51.972;4.450;2023-01-29T07:38:37;102746.03;;;3.29;100.00
69836;BME280;57132;51.972;4.450;2023-01-29T07:41:02;102753.03;;;3.30;100.00
69836;BME280;57132;51.972;4.450;2023-01-29T07:43:27;102749.50;;;3.31;100.00
69836;BME280;57132;51.972;4.450;2023-01-29T07:45:54;102746.81;;;3.35;100.00
69836;BME280;57132;51.972;4.450;2023-01-29T07:48:19;102743.28;;;3.38;100.00
69836;BME280;57132;51.972;4.450;2023-01-29T07:50:53;102742.41;;;3.37;100.00
69836;BME280;57132;51.972;4.450;2023-01-29T07:53:18;102743.31;;;3.35;100.00
69836;BME280;57132;51.972;4.450;2023-01-29T07:55:44;102734.56;;;3.30;100.00
69836;BME280;57132;51.972;4.450;2023-01-29T07:58:09;102736.31;;;3.28;100.00
69836;BME280;57132;51.972;4.450;2023-01-29T08:00:35;102728.44;;;3.26;100.00
69836;BME280;57132;51.972;4.450;2023-01-29T08:03:10;102735.47;;;3.27;100.00
69836;BME280;57132;51.972;4.450;2023-01-29T08:05:36;102733.72;;;3.26;100.00
69836;BME280;57132;51.972;4.450;2023-01-29T08:08:02;102732.81;;;3.29;100.00
69836;BME280;57132;51.972;4.450;2023-01-29T08:10:28;102731.06;;;3.28;100.00
69836;BME280;57132;51.972;4.450;2023-01-29T08:12:58;102732.81;;;3.27;100.00
69836;BME280;57132;51.972;4.450;2023-01-29T08:15:24;102729.28;;;3.28;100.00
69836;BME280;57132;51.972;4.450;2023-01-29T08:17:50;102725.78;;;3.28;100.00
69836;BME280;57132;51.972;4.450;2023-01-29T08:20:16;102726.66;;;3.30;100.00
69836;BME280;57132;51.972;4.450;2023-01-29T08:22:43;102717.81;;;3.32;100.00
69836;BME280;57132;51.972;4.450;2023-01-29T08:25:09;102722.28;;;3.29;100.00
69836;BME280;57132;51.972;4.450;2023-01-29T08:27:35;102716.06;;;3.31;100.00
69836;BME280;57132;51.972;4.450;2023-01-29T08:30:00;102707.31;;;3.29;100.00
69836;BME280;57132;51.972;4.450;2023-01-29T08:32:26;102717.88;;;3.29;100.00
69836;BME280;57132;51.972;4.450;2023-01-29T08:34:51;102706.38;;;3.32;100.00
69836;BME280;57132;51.972;4.450;2023-01-29T08:37:18;102703.72;;;3.32;100.00
69836;BME280;57132;51.972;4.450;2023-01-29T08:39:43;102713.44;;;3.33;100.00
69836;BME280;57132;51.972;4.450;2023-01-29T08:42:09;102707.25;;;3.32;100.00
69836;BME280;57132;51.972;4.450;2023-01-29T08:44:34;102700.19;;;3.34;100.00
69836;BME280;57132;51.972;4.450;2023-01-29T08:47:00;102707.22;;;3.37;100.00
69836;BME280;57132;51.972;4.450;2023-01-29T08:49:25;102697.53;;;3.37;100.00
69836;BME280;57132;51.972;4.450;2023-01-29T08:51:51;102689.59;;;3.39;100.00
69836;BME280;57132;51.972;4.450;2023-01-29T08:54:17;102694.00;;;3.38;100.00
69836;BME280;57132;51.972;4.450;2023-01-29T08:56:43;102696.63;;;3.41;100.00
69836;BME280;57132;51.972;4.450;2023-01-29T08:59:09;102697.47;;;3.42;100.00
69836;BME280;57132;51.972;4.450;2023-01-29T09:01:35;102697.44;;;3.45;100.00
69836;BME280;57132;51.972;4.450;2023-01-29T09:04:00;102701.84;;;3.46;100.00
69836;BME280;57132;51.972;4.450;2023-01-29T09:06:26;102694.75;;;3.48;100.00
69836;BME280;57132;51.972;4.450;2023-01-29T09:08:51;102701.81;;;3.49;100.00
69836;BME280;57132;51.972;4.450;2023-01-29T09:11:17;102688.59;;;3.48;100.00
69836;BME280;57132;51.972;4.450;2023-01-29T09:13:42;102686.00;;;3.46;100.00
69836;BME280;57132;51.972;4.450;2023-01-29T09:16:08;102682.47;;;3.49;100.00
69836;BME280;57132;51.972;4.450;2023-01-29T09:18:34;102683.31;;;3.48;100.00
69836;BME280;57132;51.972;4.450;2023-01-29T09:20:59;102691.25;;;3.49;100.00
69836;BME280;57132;51.972;4.450;2023-01-29T09:23:27;102687.69;;;3.53;100.00
69836;BME280;57132;51.972;4.450;2023-01-29T09:25:53;102694.69;;;3.54;100.00
69836;BME280;57132;51.972;4.450;2023-01-29T09:28:18;102691.16;;;3.55;100.00
69836;BME280;57132;51.972;4.450;2023-01-29T09:30:44;102700.00;;;3.51;100.00
69836;BME280;57132;51.972;4.450;2023-01-29T09:33:10;102697.38;;;3.51;100.00
69836;BME280;57132;51.972;4.450;2023-01-29T09:35:35;102680.63;;;3.52;100.00
69836;BME280;57132;51.972;4.450;2023-01-29T09:38:01;102682.44;;;3.50;100.00
69836;BME280;57132;51.972;4.450;2023-01-29T09:41:07;102692.97;;;3.52;100.00
69836;BME280;57132;51.972;4.450;2023-01-29T09:43:59;102685.09;;;3.49;100.00
69836;BME280;57132;51.972;4.450;2023-01-29T09:46:42;102693.00;;;3.50;100.00
69836;BME280;57132;51.972;4.450;2023-01-29T09:49:27;102696.53;;;3.48;100.00
69836;BME280;57132;51.972;4.450;2023-01-29T09:52:02;102683.25;;;3.52;100.00
69836;BME280;57132;51.972;4.450;2023-01-29T09:57:28;102677.16;;;3.50;100.00
69836;BME280;57132;51.972;4.450;2023-01-29T09:59:58;102674.47;;;3.52;100.00
69836;BME280;57132;51.972;4.450;2023-01-29T10:03:00;102684.16;;;3.51;100.00
69836;BME280;57132;51.972;4.450;2023-01-29T10:08:16;102667.50;;;3.46;100.00
69836;BME280;57132;51.972;4.450;2023-01-29T10:10:49;102664.84;;;3.49;100.00
69836;BME280;57132;51.972;4.450;2023-01-29T10:16:29;102651.59;;;3.52;100.00
69836;BME280;57132;51.972;4.450;2023-01-29T10:19:02;102665.66;;;3.54;100.00
69836;BME280;57132;51.972;4.450;2023-01-29T10:24:37;102650.63;;;3.59;100.00
69836;BME280;57132;51.972;4.450;2023-01-29T10:27:16;102651.50;;;3.61;100.00
69836;BME280;57132;51.972;4.450;2023-01-29T10:29:43;102645.28;;;3.65;100.00
69836;BME280;57132;51.972;4.450;2023-01-29T10:32:17;102646.16;;;3.66;100.00
69836;BME280;57132;51.972;4.450;2023-01-29T10:34:52;102659.31;;;3.69;100.00
69836;BME280;57132;51.972;4.450;2023-01-29T10:37:23;102658.38;;;3.72;100.00
69836;BME280;57132;51.972;4.450;2023-01-29T10:39:50;102652.22;;;3.73;100.00
69836;BME280;57132;51.972;4.450;2023-01-29T10:47:57;102668.94;;;3.73;100.00
69836;BME280;57132;51.972;4.450;2023-01-29T10:50:56;102635.53;;;3.69;100.00
69836;BME280;57132;51.972;4.450;2023-01-29T10:58:54;102621.44;;;3.70;100.00
69836;BME280;57132;51.972;4.450;2023-01-29T11:01:21;102617.91;;;3.73;100.00
69836;BME280;57132;51.972;4.450;2023-01-29T11:03:55;102609.06;;;3.74;100.00
69836;BME280;57132;51.972;4.450;2023-01-29T11:06:23;102597.63;;;3.73;100.00
69836;BME280;57132;51.972;4.450;2023-01-29T11:08:58;102601.97;;;3.76;100.00
69836;BME280;57132;51.972;4.450;2023-01-29T11:11:47;102609.88;;;3.79;100.00
69836;BME280;57132;51.972;4.450;2023-01-29T11:14:20;102599.22;;;3.83;100.00
69836;BME280;57132;51.972;4.450;2023-01-29T11:16:47;102607.22;;;3.80;100.00
69836;BME280;57132;51.972;4.450;2023-01-29T11:19:14;102595.75;;;3.80;100.00
69836;BME280;57132;51.972;4.450;2023-01-29T11:22:13;102619.53;;;3.81;100.00
69836;BME280;57132;51.972;4.450;2023-01-29T11:24:39;102599.31;;;3.79;100.00
69836;BME280;57132;51.972;4.450;2023-01-29T11:27:14;102600.19;;;3.81;100.00
69836;BME280;57132;51.972;4.450;2023-01-29T11:29:49;102592.22;;;3.82;100.00
69836;BME280;57132;51.972;4.450;2023-01-29T11:32:25;102593.13;;;3.81;100.00
69836;BME280;57132;51.972;4.450;2023-01-29T11:35:00;102585.19;;;3.81;100.00
69836;BME280;57132;51.972;4.450;2023-01-29T11:37:37;102582.50;;;3.84;100.00
69836;BME280;57132;51.972;4.450;2023-01-29T11:42:44;102579.81;;;3.89;100.00
69836;BME280;57132;51.972;4.450;2023-01-29T11:45:25;102570.97;;;3.90;100.00
69836;BME280;57132;51.972;4.450;2023-01-29T11:47:57;102561.28;;;3.92;100.00
69836;BME280;57132;51.972;4.450;2023-01-29T11:50:28;102562.13;;;3.91;100.00
69836;BME280;57132;51.972;4.450;2023-01-29T11:52:58;102554.22;;;3.91;100.00
69836;BME280;57132;51.972;4.450;2023-01-29T11:55:29;102551.56;;;3.91;100.00
69836;BME280;57132;51.972;4.450;2023-01-29T12:00:53;102558.63;;;3.92;100.00
69836;BME280;57132;51.972;4.450;2023-01-29T12:06:22;102541.88;;;3.93;100.00
69836;BME280;57132;51.972;4.450;2023-01-29T12:08:59;102538.28;;;3.97;100.00
69836;BME280;57132;51.972;4.450;2023-01-29T12:11:33;102533.81;;;4.01;100.00
69836;BME280;57132;51.972;4.450;2023-01-29T12:14:04;102517.94;;;4.02;100.00
69836;BME280;57132;51.972;4.450;2023-01-29T12:16:41;102527.59;;;4.05;100.00
69836;BME280;57132;51.972;4.450;2023-01-29T12:19:28;102513.44;;;4.09;100.00
69836;BME280;57132;51.972;4.450;2023-01-29T12:24:35;102496.56;;;4.16;100.00
69836;BME280;57132;51.972;4.450;2023-01-29T12:27:11;102481.50;;;4.21;100.00
69836;BME280;57132;51.972;4.450;2023-01-29T12:29:45;102498.06;;;4.31;100.00
69836;BME280;57132;51.972;4.450;2023-01-29T12:32:34;102460.91;;;4.38;100.00
69836;BME280;57132;51.972;4.450;2023-01-29T12:35:16;102474.84;;;4.48;100.00
69836;BME280;57132;51.972;4.450;2023-01-29T12:37:49;102463.28;;;4.52;100.00
69836;BME280;57132;51.972;4.450;2023-01-29T12:40:20;102468.69;;;4.48;100.00
69836;BME280;57132;51.972;4.450;2023-01-29T12:42:52;102467.81;;;4.46;100.00
69836;BME280;57132;51.972;4.450;2023-01-29T12:45:22;102470.41;;;4.49;100.00
69836;BME280;57132;51.972;4.450;2023-01-29T12:47:53;102467.00;;;4.42;100.00
69836;BME280;57132;51.972;4.450;2023-01-29T12:50:23;102443.34;;;4.34;100.00
69836;BME280;57132;51.972;4.450;2023-01-29T12:52:58;102447.88;;;4.29;100.00
69836;BME280;57132;51.972;4.450;2023-01-29T12:55:35;102449.66;;;4.27;100.00
69836;BME280;57132;51.972;4.450;2023-01-29T12:58:14;102429.47;;;4.25;100.00
69836;BME280;57132;51.972;4.450;2023-01-29T13:00:45;102455.03;;;4.23;100.00
69836;BME280;57132;51.972;4.450;2023-01-29T13:03:18;102426.88;;;4.22;100.00
69836;BME280;57132;51.972;4.450;2023-01-29T13:05:47;102395.19;;;4.18;100.00
69836;BME280;57132;51.972;4.450;2023-01-29T13:08:19;102398.63;;;4.24;100.00
69836;BME280;57132;51.972;4.450;2023-01-29T13:10:49;102396.88;;;4.24;100.00
69836;BME280;57132;51.972;4.450;2023-01-29T13:13:30;102386.22;;;4.29;100.00
69836;BME280;57132;51.972;4.450;2023-01-29T13:15:58;102366.75;;;4.31;100.00
69836;BME280;57132;51.972;4.450;2023-01-29T13:18:37;102364.06;;;4.34;100.00
69836;BME280;57132;51.972;4.450;2023-01-29T13:21:04;102368.38;;;4.38;100.00
69836;BME280;57132;51.972;4.450;2023-01-29T13:23:35;102358.59;;;4.43;100.00
69836;BME280;57132;51.972;4.450;2023-01-29T13:26:02;102347.13;;;4.44;100.00
69836;BME280;57132;51.972;4.450;2023-01-29T13:28:30;102360.28;;;4.48;100.00
69836;BME280;57132;51.972;4.450;2023-01-29T13:31:28;102347.88;;;4.50;100.00
69836;BME280;57132;51.972;4.450;2023-01-29T13:34:14;102334.59;;;4.51;100.00
69836;BME280;57132;51.972;4.450;2023-01-29T13:36:49;102332.75;;;4.56;100.00
69836;BME280;57132;51.972;4.450;2023-01-29T13:41:48;102321.91;;;4.68;100.00
69836;BME280;57132;51.972;4.450;2023-01-29T13:44:25;102324.63;;;4.65;100.00
69836;BME280;57132;51.972;4.450;2023-01-29T13:46:55;102312.88;;;4.77;100.00
69836;BME280;57132;51.972;4.450;2023-01-29T13:49:34;102326.91;;;4.81;100.00
69836;BME280;57132;51.972;4.450;2023-01-29T13:55:02;102339.34;;;4.77;100.00
69836;BME280;57132;51.972;4.450;2023-01-29T14:11:32;102297.53;;;4.54;100.00
69836;BME280;57132;51.972;4.450;2023-01-29T14:13:58;102295.84;;;4.52;100.00
69836;BME280;57132;51.972;4.450;2023-01-29T14:16:27;102294.13;;;4.49;100.00
69836;BME280;57132;51.972;4.450;2023-01-29T14:19:01;102280.97;;;4.46;100.00
69836;BME280;57132;51.972;4.450;2023-01-29T14:21:29;102294.28;;;4.41;100.00
69836;BME280;57132;51.972;4.450;2023-01-29T14:23:56;102312.06;;;4.35;100.00
69836;BME280;57132;51.972;4.450;2023-01-29T14:26:27;102291.78;;;4.35;100.00
69836;BME280;57132;51.972;4.450;2023-01-29T14:33:59;102280.47;;;4.29;100.00
69836;BME280;57132;51.972;4.450;2023-01-29T14:36:26;102278.75;;;4.26;100.00
69836;BME280;57132;51.972;4.450;2023-01-29T14:38:52;102281.47;;;4.23;100.00
69836;BME280;57132;51.972;4.450;2023-01-29T14:41:23;102277.09;;;4.22;100.00
69836;BME280;57132;51.972;4.450;2023-01-29T14:43:49;102278.91;;;4.20;100.00
69836;BME280;57132;51.972;4.450;2023-01-29T14:48:58;102265.75;;;4.17;100.00
69836;BME280;57132;51.972;4.450;2023-01-29T14:51:24;102270.19;;;4.16;100.00
69836;BME280;57132;51.972;4.450;2023-01-29T14:54:24;102271.03;;;4.17;100.00
69836;BME280;57132;51.972;4.450;2023-01-29T14:56:55;102256.09;;;4.14;100.00
69836;BME280;57132;51.972;4.450;2023-01-29T14:59:28;102259.72;;;4.10;100.00